Time;durP1;ratioP1;P1;durP2;ratioP2;P2;SDS_P1;SDS_P2;PMS_P1;PMS_P2;Temp;Humidity;BMP_temperature;BMP_pressure;BME280_temperature;BME280_humidity;BME280_pressure;Samples;Min_cycle;Max_cycle;Signal;HPM_P1;HPM_P2
2021/04/08 00:01:24;;;;;;;7.90;0.40;;;0.50;99.90;;;;;;5008218;28;20030;-77
2021/04/08 00:03:50;;;;;;;4.97;0.40;;;0.60;99.90;;;;;;5024524;28;20061;-77
2021/04/08 00:06:16;;;;;;;4.50;0.47;;;0.50;99.90;;;;;;5007857;28;20029;-77
2021/04/08 00:08:41;;;;;;;2.10;0.35;;;0.50;99.90;;;;;;5025455;28;20046;-77
2021/04/08 00:11:07;;;;;;;4.82;0.38;;;0.60;99.90;;;;;;5024259;28;20046;-77
2021/04/08 00:13:34;;;;;;;6.50;0.55;;;0.60;99.90;;;;;;5025668;28;20054;-77
2021/04/08 00:16:00;;;;;;;6.82;0.50;;;0.60;99.90;;;;;;5025565;28;20061;-77
2021/04/08 00:18:26;;;;;;;7.28;0.38;;;0.50;99.90;;;;;;5025590;28;20030;-77
2021/04/08 00:20:51;;;;;;;3.20;0.82;;;0.60;99.90;;;;;;5024291;28;20036;-77
2021/04/08 00:23:17;;;;;;;6.18;0.50;;;0.40;99.90;;;;;;5024093;28;20117;-77
2021/04/08 00:25:43;;;;;;;5.15;0.60;;;0.60;99.90;;;;;;5024143;28;20034;-78
2021/04/08 00:28:08;;;;;;;7.15;0.47;;;0.60;99.90;;;;;;5024256;28;20026;-77
2021/04/08 00:30:43;;;;;;;5.72;0.40;;;0.50;99.90;;;;;;5025451;28;20130;-77
2021/04/08 00:33:17;;;;;;;4.05;0.35;;;0.50;99.90;;;;;;5007947;28;20029;-77
2021/04/08 00:35:44;;;;;;;8.82;0.40;;;0.50;99.90;;;;;;5023927;28;20038;-77
2021/04/08 00:38:10;;;;;;;4.82;0.50;;;0.60;99.90;;;;;;4991442;28;20120;-78
2021/04/08 00:40:36;;;;;;;5.18;0.77;;;0.50;99.90;;;;;;5025144;28;20037;-77
2021/04/08 00:43:02;;;;;;;2.25;0.25;;;0.40;99.90;;;;;;5024373;28;20033;-77
2021/04/08 00:45:28;;;;;;;2.80;0.45;;;0.30;99.90;;;;;;5024316;28;20549;-77
2021/04/08 00:47:54;;;;;;;3.10;0.30;;;0.30;99.90;;;;;;5010783;28;20053;-77
2021/04/08 00:50:20;;;;;;;4.40;0.40;;;0.20;99.90;;;;;;5028020;28;20038;-77
2021/04/08 00:52:58;;;;;;;5.00;0.30;;;0.20;99.90;;;;;;5011378;28;20040;-77
2021/04/08 00:55:27;;;;;;;2.25;0.40;;;0.20;99.90;;;;;;5027228;28;20057;-77
2021/04/08 00:57:55;;;;;;;6.60;0.75;;;0.20;99.90;;;;;;4994666;28;20038;-77
2021/04/08 01:00:25;;;;;;;5.60;0.47;;;0.30;99.90;;;;;;5028883;28;20041;-77
2021/04/08 01:02:51;;;;;;;3.50;0.40;;;0.30;99.90;;;;;;5028664;28;20044;-77
2021/04/08 01:05:16;;;;;;;3.70;0.25;;;0.20;99.90;;;;;;5028548;28;20034;-77
2021/04/08 01:07:42;;;;;;;8.70;0.30;;;0.20;99.90;;;;;;5017432;28;20169;-77
2021/04/08 01:10:10;;;;;;;10.52;0.80;;;0.30;99.90;;;;;;4991375;28;20042;-77
2021/04/08 01:12:35;;;;;;;6.28;0.35;;;0.40;99.90;;;;;;5008821;28;20030;-77
2021/04/08 01:15:03;;;;;;;3.75;0.50;;;0.30;99.90;;;;;;5007630;28;20102;-77
2021/04/08 01:17:48;;;;;;;8.82;0.70;;;0.30;99.90;;;;;;5008567;28;20371;-76
2021/04/08 01:20:44;;;;;;;9.02;0.88;;;0.40;99.90;;;;;;5008681;28;20064;-77
2021/04/08 01:24:00;;;;;;;4.18;0.40;;;0.40;99.90;;;;;;4975037;28;20050;-77
2021/04/08 01:27:13;;;;;;;5.32;0.50;;;0.40;99.90;;;;;;4990913;28;20042;-77
2021/04/08 01:30:02;;;;;;;5.35;0.70;;;0.30;99.90;;;;;;5002026;28;20049;-77
2021/04/08 01:32:30;;;;;;;4.35;0.50;;;0.30;99.90;;;;;;5007111;28;20479;-77
2021/04/08 01:34:59;;;;;;;3.78;0.80;;;0.20;99.90;;;;;;5007213;28;20064;-77
2021/04/08 01:37:48;;;;;;;7.88;1.67;;;0.30;99.90;;;;;;5006710;28;20066;-77
2021/04/08 01:40:15;;;;;;;10.53;1.80;;;0.30;99.90;;;;;;5007984;28;20038;-77
2021/04/08 01:42:44;;;;;;;8.88;1.75;;;0.40;99.90;;;;;;5008301;28;20042;-77
2021/04/08 01:45:10;;;;;;;14.32;3.42;;;0.50;99.90;;;;;;5008072;28;20061;-77
2021/04/08 01:47:38;;;;;;;10.00;2.90;;;0.60;99.90;;;;;;4990602;28;20110;-77
2021/04/08 01:50:06;;;;;;;8.60;3.15;;;0.40;99.90;;;;;;5007991;28;20414;-77
2021/04/08 01:52:33;;;;;;;15.43;4.15;;;0.60;99.90;;;;;;5006695;28;20038;-77
2021/04/08 01:55:00;;;;;;;10.63;3.42;;;0.60;99.90;;;;;;5006892;28;20030;-76
2021/04/08 01:57:27;;;;;;;12.32;3.60;;;0.60;99.90;;;;;;5007151;28;20034;-77
2021/04/08 01:59:56;;;;;;;10.95;3.47;;;0.60;99.90;;;;;;4974406;28;20387;-77
2021/04/08 02:02:23;;;;;;;10.43;3.45;;;0.60;99.90;;;;;;5007971;28;20054;-77
2021/04/08 02:04:50;;;;;;;6.68;2.80;;;0.60;99.90;;;;;;5007801;28;20477;-77
2021/04/08 02:07:16;;;;;;;11.02;3.42;;;0.60;99.90;;;;;;4980801;28;20132;-77
2021/04/08 02:09:43;;;;;;;8.30;3.45;;;0.60;99.90;;;;;;5026110;28;20033;-77
2021/04/08 02:12:10;;;;;;;12.02;3.15;;;0.50;99.90;;;;;;5027382;28;20105;-77
2021/04/08 02:14:38;;;;;;;6.93;2.45;;;0.60;99.90;;;;;;5027304;28;20041;-77
2021/04/08 02:17:05;;;;;;;14.27;3.50;;;0.60;99.90;;;;;;5027237;28;20037;-77
2021/04/08 02:19:33;;;;;;;9.50;2.50;;;0.60;99.90;;;;;;5009648;28;20496;-77
2021/04/08 02:22:01;;;;;;;15.82;3.90;;;0.60;99.90;;;;;;5025891;28;20517;-77
2021/04/08 02:24:29;;;;;;;10.02;2.72;;;0.70;99.90;;;;;;5009613;28;20439;-77
2021/04/08 02:26:55;;;;;;;8.65;2.08;;;0.80;99.90;;;;;;5009524;28;20061;-77
2021/04/08 02:29:22;;;;;;;8.23;1.63;;;0.80;99.90;;;;;;5009541;28;20037;-77
2021/04/08 02:31:50;;;;;;;9.45;2.70;;;0.80;99.90;;;;;;5026934;28;20042;-78
2021/04/08 02:34:15;;;;;;;8.93;2.92;;;0.90;99.90;;;;;;5026942;28;20117;-77
2021/04/08 02:36:41;;;;;;;11.13;2.58;;;1.00;99.90;;;;;;4992808;28;20169;-77
2021/04/08 02:39:08;;;;;;;8.70;1.25;;;1.10;99.90;;;;;;5009099;28;20029;-77
2021/04/08 02:41:42;;;;;;;9.43;1.60;;;1.00;99.90;;;;;;5009260;28;20049;-77
2021/04/08 02:44:08;;;;;;;9.38;1.45;;;1.10;99.90;;;;;;5026706;28;20042;-77
2021/04/08 02:46:34;;;;;;;5.93;1.15;;;1.10;99.90;;;;;;5025365;28;20105;-77
2021/04/08 02:49:02;;;;;;;3.78;0.60;;;1.10;99.90;;;;;;5026643;28;20097;-77
2021/04/08 02:51:35;;;;;;;7.22;0.70;;;1.10;99.90;;;;;;5026487;28;20069;-77
2021/04/08 02:54:39;;;;;;;5.30;0.50;;;1.10;99.90;;;;;;5026710;28;20022;-78
2021/04/08 02:57:06;;;;;;;8.02;0.77;;;1.20;99.90;;;;;;5024857;28;20037;-77
2021/04/08 03:00:04;;;;;;;5.93;0.50;;;1.20;99.90;;;;;;5008764;28;20033;-77
2021/04/08 03:02:35;;;;;;;9.35;0.77;;;1.20;99.90;;;;;;5026042;28;20056;-77
2021/04/08 03:05:00;;;;;;;4.30;0.63;;;1.20;99.90;;;;;;5025256;28;20517;-77
2021/04/08 03:07:33;;;;;;;6.57;0.47;;;1.30;99.90;;;;;;5024423;28;20058;-77
2021/04/08 03:10:03;;;;;;;4.50;0.40;;;1.20;99.90;;;;;;5024606;28;20076;-78
2021/04/08 03:12:31;;;;;;;4.97;0.35;;;1.20;99.90;;;;;;5008908;28;20048;-78
2021/04/08 03:14:58;;;;;;;4.10;0.40;;;1.20;99.90;;;;;;5008542;28;20042;-77
2021/04/08 03:17:33;;;;;;;3.33;0.43;;;1.30;99.90;;;;;;5024993;28;20036;-77
2021/04/08 03:20:01;;;;;;;4.78;0.30;;;1.30;99.90;;;;;;5025172;28;20041;-77
2021/04/08 03:22:28;;;;;;;4.90;0.30;;;1.30;99.90;;;;;;5026241;28;20537;-77
2021/04/08 03:24:56;;;;;;;4.95;0.30;;;1.30;99.90;;;;;;5008445;28;20034;-77
2021/04/08 03:27:24;;;;;;;5.50;0.55;;;1.30;99.90;;;;;;5024926;28;20040;-78
2021/04/08 03:29:50;;;;;;;2.55;0.30;;;1.30;99.90;;;;;;5008471;28;20034;-77
2021/04/08 03:32:20;;;;;;;4.45;0.30;;;1.30;99.90;;;;;;5024986;28;20033;-77
2021/04/08 03:34:47;;;;;;;6.20;0.30;;;1.20;99.90;;;;;;5008352;28;20068;-77
2021/04/08 03:37:15;;;;;;;1.00;0.30;;;1.20;99.90;;;;;;5008115;28;20228;-77
2021/04/08 03:39:41;;;;;;;1.83;0.30;;;1.20;99.90;;;;;;5024616;28;20030;-77
2021/04/08 03:42:11;;;;;;;2.35;0.30;;;1.20;99.90;;;;;;5026059;28;20030;-77
2021/04/08 03:44:38;;;;;;;3.38;0.30;;;1.30;99.90;;;;;;5024637;28;20045;-78
2021/04/08 03:47:04;;;;;;;6.20;0.40;;;1.30;99.90;;;;;;5025911;28;20050;-77
2021/04/08 03:49:31;;;;;;;3.78;0.35;;;1.30;99.90;;;;;;5025821;28;20533;-77
2021/04/08 03:51:58;;;;;;;6.88;0.43;;;1.30;99.90;;;;;;5008066;28;20054;-77
2021/04/08 03:54:25;;;;;;;4.53;0.50;;;1.30;99.90;;;;;;5025821;28;20034;-77
2021/04/08 03:56:53;;;;;;;8.80;0.95;;;1.30;99.90;;;;;;5025790;28;20037;-77
2021/04/08 03:59:20;;;;;;;7.32;0.60;;;1.40;99.90;;;;;;5024410;28;20033;-77
2021/04/08 04:01:47;;;;;;;4.47;0.30;;;1.40;99.90;;;;;;5024560;28;20026;-77
2021/04/08 04:04:14;;;;;;;2.15;0.20;;;1.40;99.90;;;;;;5024428;28;20041;-77
2021/04/08 04:06:42;;;;;;;4.43;0.30;;;1.30;99.90;;;;;;5023981;28;20041;-78
2021/04/08 04:09:13;;;;;;;2.28;0.25;;;1.40;99.90;;;;;;4991658;28;20030;-77
2021/04/08 04:11:42;;;;;;;6.18;0.30;;;1.40;99.90;;;;;;5007777;28;20045;-77
2021/04/08 04:14:09;;;;;;;4.07;0.20;;;1.40;99.90;;;;;;5008130;28;20074;-77
2021/04/08 04:16:38;;;;;;;2.92;0.30;;;1.40;99.90;;;;;;5006744;28;20061;-78
2021/04/08 04:19:04;;;;;;;4.28;0.25;;;1.40;99.90;;;;;;5024220;28;20061;-78
2021/04/08 04:21:31;;;;;;;5.07;0.22;;;1.50;99.90;;;;;;5011586;28;20045;-78
2021/04/08 04:23:57;;;;;;;5.90;0.30;;;1.40;99.90;;;;;;5027996;28;20093;-78
2021/04/08 04:26:22;;;;;;;4.18;0.30;;;1.40;99.90;;;;;;5027814;28;20088;-78
2021/04/08 04:28:48;;;;;;;3.15;0.30;;;1.40;99.90;;;;;;5029286;28;20094;-78
2021/04/08 04:31:13;;;;;;;3.63;0.28;;;1.40;99.90;;;;;;4994947;28;20046;-78
2021/04/08 04:33:39;;;;;;;2.65;0.68;;;1.40;99.90;;;;;;5028066;28;20394;-79
2021/04/08 04:36:05;;;;;;;2.22;0.15;;;1.40;99.90;;;;;;5027444;28;20110;-78
2021/04/08 04:38:31;;;;;;;2.65;0.28;;;1.40;99.90;;;;;;5011186;28;20099;-78
2021/04/08 04:40:56;;;;;;;3.75;0.30;;;1.40;99.90;;;;;;5012105;28;20073;-79
2021/04/08 04:43:22;;;;;;;3.25;0.30;;;1.40;99.90;;;;;;5013141;28;20038;-78
2021/04/08 04:45:48;;;;;;;3.83;0.30;;;1.30;99.90;;;;;;5012977;28;20036;-79
2021/04/08 04:48:13;;;;;;;2.00;0.20;;;1.40;99.90;;;;;;5011730;28;20489;-78
2021/04/08 04:50:39;;;;;;;1.88;0.30;;;1.40;99.90;;;;;;5011248;28;20046;-79
2021/04/08 04:53:05;;;;;;;5.25;0.28;;;1.40;99.90;;;;;;5011268;28;20033;-78
2021/04/08 04:55:31;;;;;;;2.50;0.40;;;1.40;99.90;;;;;;5027419;28;20022;-79
2021/04/08 04:57:56;;;;;;;3.08;0.30;;;1.40;99.90;;;;;;5027692;28;20053;-78
2021/04/08 05:00:22;;;;;;;1.13;0.20;;;1.40;99.90;;;;;;5011178;28;20084;-79
2021/04/08 05:02:50;;;;;;;3.17;0.30;;;1.40;99.90;;;;;;5028862;28;20026;-79
2021/04/08 05:05:16;;;;;;;2.70;0.25;;;1.40;99.90;;;;;;5010901;28;20061;-78
2021/04/08 05:07:42;;;;;;;2.95;0.38;;;1.40;99.90;;;;;;5003727;28;20048;-78
2021/04/08 05:10:08;;;;;;;2.75;0.30;;;1.40;99.90;;;;;;5023578;28;20037;-79
2021/04/08 05:12:34;;;;;;;3.75;0.30;;;1.40;99.90;;;;;;4997070;28;20037;-78
2021/04/08 05:15:00;;;;;;;3.20;0.30;;;1.40;99.90;;;;;;4987282;28;20038;-78
2021/04/08 05:17:26;;;;;;;2.17;0.30;;;1.50;99.90;;;;;;5007732;28;20033;-78
2021/04/08 05:19:51;;;;;;;2.90;0.50;;;1.50;99.90;;;;;;5009350;28;20030;-78
2021/04/08 05:22:17;;;;;;;2.25;0.30;;;1.50;99.90;;;;;;4992318;28;20129;-78
2021/04/08 05:24:43;;;;;;;2.85;0.30;;;1.50;99.90;;;;;;5002184;28;20029;-78
2021/04/08 05:27:09;;;;;;;1.30;0.20;;;1.50;99.90;;;;;;5012678;28;20030;-78
2021/04/08 05:29:35;;;;;;;2.65;0.40;;;1.50;99.90;;;;;;5003437;28;20164;-78
2021/04/08 05:32:00;;;;;;;3.45;0.40;;;1.60;99.90;;;;;;5011622;28;20045;-79
2021/04/08 05:34:26;;;;;;;1.65;0.30;;;1.60;99.90;;;;;;5014119;28;20064;-78
2021/04/08 05:36:52;;;;;;;1.85;0.30;;;1.60;99.90;;;;;;5008166;28;20179;-80
2021/04/08 05:39:17;;;;;;;2.55;0.40;;;1.60;99.90;;;;;;5004074;28;20045;-79
2021/04/08 05:41:44;;;;;;;4.07;0.40;;;1.60;99.90;;;;;;4990780;28;20068;-79
2021/04/08 05:44:10;;;;;;;3.75;0.50;;;1.70;99.90;;;;;;4994367;28;20132;-79
2021/04/08 05:46:36;;;;;;;1.90;0.40;;;1.70;99.90;;;;;;4986016;28;20121;-79
2021/04/08 05:49:01;;;;;;;6.15;0.50;;;1.70;99.90;;;;;;5002118;28;20030;-79
2021/04/08 05:51:27;;;;;;;3.92;0.40;;;1.80;99.90;;;;;;4987388;28;20475;-79
2021/04/08 05:53:53;;;;;;;2.40;0.80;;;1.80;99.90;;;;;;5001206;28;20056;-79
2021/04/08 05:56:19;;;;;;;4.88;0.50;;;1.80;99.90;;;;;;5007426;28;20057;-79
2021/04/08 05:58:44;;;;;;;2.55;0.50;;;1.80;99.90;;;;;;4971371;28;20023;-79
2021/04/08 06:01:10;;;;;;;3.13;0.60;;;1.90;99.90;;;;;;4978454;28;20034;-79
2021/04/08 06:03:37;;;;;;;5.03;0.60;;;1.90;99.90;;;;;;4988596;28;20282;-79
2021/04/08 06:06:03;;;;;;;5.93;0.70;;;2.00;99.90;;;;;;4986577;28;20514;-78
2021/04/08 06:08:29;;;;;;;5.55;0.90;;;2.00;99.90;;;;;;4991049;28;20050;-79
2021/04/08 06:10:55;;;;;;;3.72;0.70;;;2.10;99.90;;;;;;5010059;28;20038;-79
2021/04/08 06:13:20;;;;;;;2.60;0.75;;;2.10;99.90;;;;;;5003891;28;20030;-79
2021/04/08 06:15:46;;;;;;;5.53;1.05;;;2.10;99.90;;;;;;4993785;28;20038;-79
2021/04/08 06:18:12;;;;;;;3.20;0.70;;;2.10;99.90;;;;;;5010163;28;20030;-79
2021/04/08 06:20:37;;;;;;;3.85;0.90;;;2.10;99.90;;;;;;5006456;28;20474;-79
2021/04/08 06:23:05;;;;;;;3.72;0.88;;;2.20;99.90;;;;;;5005784;28;20479;-78
2021/04/08 06:25:32;;;;;;;3.88;0.80;;;2.20;99.90;;;;;;4984381;28;20039;-78
2021/04/08 06:27:58;;;;;;;3.75;0.80;;;2.20;99.90;;;;;;4976218;28;20034;-79
2021/04/08 06:30:24;;;;;;;4.72;0.90;;;2.30;99.90;;;;;;4969035;28;20042;-79
2021/04/08 06:32:53;;;;;;;6.63;1.45;;;2.30;99.90;;;;;;4988186;28;20057;-79
2021/04/08 06:35:20;;;;;;;4.05;1.27;;;2.40;99.90;;;;;;4999894;28;20044;-79
2021/04/08 06:37:46;;;;;;;6.47;1.00;;;2.50;99.90;;;;;;4992079;28;20049;-79
2021/04/08 06:40:12;;;;;;;6.97;1.80;;;2.50;99.90;;;;;;5002695;28;20022;-79
2021/04/08 06:42:41;;;;;;;6.05;1.38;;;2.60;99.90;;;;;;5000738;28;20026;-80
2021/04/08 06:45:08;;;;;;;5.07;1.38;;;2.70;99.90;;;;;;5002336;28;20037;-79
2021/04/08 06:47:38;;;;;;;4.65;1.40;;;2.70;99.90;;;;;;5004550;28;20122;-79
2021/04/08 06:50:05;;;;;;;;;;;2.80;99.90;;;;;;4987165;28;20072;-78
2021/04/08 06:52:31;;;;;;;4.22;1.10;;;2.80;99.90;;;;;;5004287;28;19918;-79
2021/04/08 06:54:57;;;;;;;6.53;1.05;;;3.00;99.90;;;;;;5004421;28;20036;-79
2021/04/08 06:57:23;;;;;;;5.63;1.70;;;3.00;99.90;;;;;;4987993;28;20049;-79
2021/04/08 06:59:49;;;;;;;5.70;0.95;;;3.00;99.90;;;;;;5004537;28;20030;-79
2021/04/08 07:02:18;;;;;;;2.90;1.15;;;3.10;99.90;;;;;;5002648;28;20038;-79
2021/04/08 07:04:44;;;;;;;4.05;1.38;;;3.10;99.90;;;;;;5003936;28;20050;-79
2021/04/08 07:07:09;;;;;;;5.13;1.55;;;3.20;99.90;;;;;;4989268;28;20034;-79
2021/04/08 07:09:36;;;;;;;3.60;1.20;;;3.30;99.90;;;;;;5023824;28;20093;-79
2021/04/08 07:12:02;;;;;;;5.07;1.05;;;3.30;99.90;;;;;;5023841;28;20049;-79
2021/04/08 07:14:28;;;;;;;4.28;1.35;;;3.30;99.90;;;;;;5007304;28;20033;-79
2021/04/08 07:16:53;;;;;;;4.55;1.30;;;3.40;99.90;;;;;;5023323;28;20076;-79
2021/04/08 07:19:20;;;;;;;2.67;1.38;;;3.40;99.90;;;;;;5041087;28;20033;-78
2021/04/08 07:21:46;;;;;;;4.95;1.42;;;3.50;99.90;;;;;;5006607;28;20037;-79
2021/04/08 07:24:14;;;;;;;5.32;1.70;;;4.00;99.90;;;;;;5023574;28;20084;-79
2021/04/08 07:27:01;;;;;;;8.68;1.73;;;3.90;99.90;;;;;;5039396;28;20474;-79
2021/04/08 07:29:39;;;;;;;6.95;1.60;;;3.80;99.90;;;;;;5020590;28;20033;-79
2021/04/08 07:32:13;;;;;;;5.45;1.00;;;3.80;99.90;;;;;;5040262;28;20128;-78
2021/04/08 07:34:50;;;;;;;2.97;1.30;;;3.80;99.90;;;;;;5027391;28;20080;-79
2021/04/08 07:37:23;;;;;;;5.70;1.08;;;4.00;99.90;;;;;;5023225;28;20045;-79
2021/04/08 07:39:48;;;;;;;4.40;0.80;;;4.30;99.90;;;;;;5004933;28;20029;-79
2021/04/08 07:42:26;;;;;;;3.58;0.90;;;4.50;99.90;;;;;;5017219;28;20557;-78
2021/04/08 07:45:05;;;;;;;6.38;1.02;;;4.40;99.90;;;;;;5024374;28;20026;-79
2021/04/08 07:47:34;;;;;;;2.70;0.60;;;4.50;99.90;;;;;;5020316;28;20105;-79
2021/04/08 07:50:05;;;;;;;4.55;0.82;;;4.50;99.90;;;;;;5024328;28;20026;-79
2021/04/08 07:52:36;;;;;;;5.53;0.88;;;4.70;99.90;;;;;;5039448;28;20038;-79
2021/04/08 07:55:08;;;;;;;1.92;0.70;;;4.70;99.90;;;;;;5022582;28;20103;-79
2021/04/08 07:58:02;;;;;;;4.05;0.80;;;4.70;99.90;;;;;;5006406;28;20060;-78
2021/04/08 08:00:29;;;;;;;5.72;1.92;;;4.80;99.90;;;;;;5020590;28;20037;-79
2021/04/08 08:03:04;;;;;;;3.63;1.00;;;5.10;99.90;;;;;;5006576;28;20081;-79
2021/04/08 08:08:25;;;;;;;4.57;1.33;;;5.70;99.90;;;;;;5001797;28;20062;-78
2021/04/08 08:11:02;;;;;;;4.10;1.08;;;5.80;99.90;;;;;;4982003;28;20086;-79
2021/04/08 08:13:33;;;;;;;5.75;0.90;;;6.00;99.90;;;;;;4980211;28;20079;-78
2021/04/08 08:16:00;;;;;;;5.78;0.70;;;6.40;99.90;;;;;;4999274;28;20026;-79
2021/04/08 08:18:27;;;;;;;3.67;1.02;;;6.60;99.90;;;;;;4983906;28;20073;-78
2021/04/08 08:21:06;;;;;;;3.40;1.08;;;6.40;99.90;;;;;;4980185;28;20034;-78
2021/04/08 08:24:01;;;;;;;3.53;0.80;;;5.90;99.90;;;;;;4984630;28;20085;-78
2021/04/08 08:26:34;;;;;;;5.13;0.93;;;5.70;99.90;;;;;;4999037;28;20042;-78
2021/04/08 08:29:02;;;;;;;4.38;0.88;;;5.90;99.90;;;;;;4997532;28;20110;-78
2021/04/08 08:31:57;;;;;;;6.18;0.98;;;6.10;99.90;;;;;;4981256;28;20118;-78
2021/04/08 08:34:27;;;;;;;4.85;0.70;;;5.90;99.90;;;;;;4985004;28;20062;-78
2021/04/08 08:37:01;;;;;;;3.00;0.87;;;5.90;99.90;;;;;;5001809;28;20030;-79
2021/04/08 08:39:38;;;;;;;3.70;0.93;;;5.90;99.90;;;;;;4997450;28;20043;-78
2021/04/08 08:42:08;;;;;;;2.92;0.80;;;6.10;99.90;;;;;;4979882;28;20510;-78
2021/04/08 08:44:35;;;;;;;2.80;0.73;;;6.30;99.90;;;;;;5004435;28;20069;-78
2021/04/08 08:47:24;;;;;;;2.28;0.50;;;6.40;99.90;;;;;;5022720;28;20033;-78
2021/04/08 08:49:54;;;;;;;4.15;0.77;;;6.30;99.90;;;;;;5002716;28;20327;-79
2021/04/08 08:52:24;;;;;;;3.55;0.73;;;6.20;99.90;;;;;;5005644;28;20041;-78
2021/04/08 08:54:50;;;;;;;5.22;1.20;;;6.20;99.90;;;;;;5011072;28;20460;-78
2021/04/08 08:57:18;;;;;;;6.47;0.98;;;6.40;99.90;;;;;;5020939;28;20038;-78
2021/04/08 08:59:45;;;;;;;5.43;1.48;;;6.60;99.90;;;;;;4984877;28;20022;-79
2021/04/08 09:02:11;;;;;;;7.55;0.90;;;7.20;99.90;;;;;;4985000;28;20050;-78
2021/04/08 09:04:36;;;;;;;3.00;1.00;;;7.00;99.90;;;;;;5022036;28;20026;-78
2021/04/08 09:07:10;;;;;;;2.28;0.90;;;7.10;99.90;;;;;;5023662;22;20057;-79
2021/04/08 09:09:38;;;;;;;5.85;1.23;;;7.30;99.90;;;;;;5027638;28;20110;-80
2021/04/08 09:12:09;;;;;;;3.70;0.80;;;7.40;99.90;;;;;;5010411;28;20040;-78
2021/04/08 09:14:36;;;;;;;2.35;0.80;;;7.60;99.90;;;;;;5027396;28;20469;-79
2021/04/08 09:17:01;;;;;;;1.90;0.70;;;7.70;99.90;;;;;;4993738;28;20030;-79
2021/04/08 09:19:33;;;;;;;4.03;0.90;;;7.70;99.90;;;;;;5010101;28;20034;-79
2021/04/08 09:22:05;;;;;;;5.47;0.80;;;8.00;99.90;;;;;;5027132;28;20029;-79
2021/04/08 09:24:45;;;;;;;4.70;1.10;;;7.50;99.90;;;;;;5027140;28;20225;-79
2021/04/08 09:27:11;;;;;;;2.88;1.00;;;6.60;99.90;;;;;;5026006;28;20026;-79
2021/04/08 09:29:45;;;;;;;5.72;1.30;;;6.50;99.90;;;;;;5026636;28;20385;-79
2021/04/08 09:32:29;;;;;;;4.10;1.38;;;6.20;99.90;;;;;;5026074;28;20053;-78
2021/04/08 09:35:04;;;;;;;4.60;1.00;;;6.10;99.90;;;;;;5025392;28;20037;-78
2021/04/08 09:37:47;;;;;;;6.07;1.00;;;6.10;99.90;;;;;;5009225;28;20034;-78
2021/04/08 09:40:31;;;;;;;4.65;1.25;;;6.10;99.90;;;;;;5024753;28;20025;-78
2021/04/08 09:43:00;;;;;;;3.80;1.77;;;6.10;99.90;;;;;;5028193;28;20030;-78
2021/04/08 09:45:27;;;;;;;2.10;0.90;;;6.20;99.90;;;;;;5041700;28;20033;-78
2021/04/08 09:48:12;;;;;;;3.20;1.20;;;6.30;99.90;;;;;;5024722;28;20037;-78
2021/04/08 09:50:56;;;;;;;5.25;0.98;;;6.30;99.90;;;;;;5024610;28;20401;-78
2021/04/08 09:53:36;;;;;;;3.92;0.93;;;6.60;99.90;;;;;;5025856;28;20022;-79
2021/04/08 09:56:04;;;;;;;2.92;0.98;;;6.70;99.90;;;;;;5026329;28;20053;-78
2021/04/08 09:58:32;;;;;;;3.33;0.90;;;6.60;99.90;;;;;;5026720;28;20054;-78
2021/04/08 10:01:00;;;;;;;5.30;1.08;;;6.80;99.90;;;;;;5008520;28;20037;-79
2021/04/08 10:03:35;;;;;;;2.97;0.80;;;6.90;99.90;;;;;;5008398;28;20037;-78
2021/04/08 10:06:23;;;;;;;3.88;1.00;;;7.30;99.90;;;;;;5008901;28;20034;-79
2021/04/08 10:08:50;;;;;;;4.32;0.88;;;7.90;99.90;;;;;;5008268;28;20045;-78
2021/04/08 10:11:29;;;;;;;3.40;1.33;;;8.40;99.90;;;;;;5008427;28;20041;-79
2021/04/08 10:13:55;;;;;;;9.98;1.30;;;8.00;99.90;;;;;;5008470;28;20105;-78
2021/04/08 10:16:21;;;;;;;5.40;1.00;;;8.10;99.90;;;;;;5008195;28;20367;-78
2021/04/08 10:18:57;;;;;;;6.25;1.15;;;8.00;99.90;;;;;;5008152;28;20025;-78
2021/04/08 10:21:23;;;;;;;4.05;1.50;;;8.20;99.90;;;;;;5008922;28;20059;-78
2021/04/08 10:23:51;;;;;;;2.72;1.08;;;8.30;99.90;;;;;;5007875;28;20044;-78
2021/04/08 10:26:20;;;;;;;4.68;1.63;;;9.10;99.90;;;;;;5023974;28;20098;-79
2021/04/08 10:28:54;;;;;;;3.40;1.48;;;8.50;98.80;;;;;;5007386;28;20030;-79
2021/04/08 10:31:35;;;;;;;3.70;1.08;;;8.60;99.90;;;;;;5002837;28;20050;-79
2021/04/08 10:34:29;;;;;;;3.90;1.35;;;8.60;99.90;;;;;;5021852;28;20029;-80
2021/04/08 10:36:56;;;;;;;3.42;1.52;;;8.40;99.90;;;;;;4997151;28;20026;-79
2021/04/08 10:39:35;;;;;;;3.38;1.25;;;8.30;99.90;;;;;;5023743;28;20041;-79
2021/04/08 10:46:06;;;;;;;2.35;1.10;;;8.50;99.90;;;;;;4913764;29;20062;-79
2021/04/08 10:48:34;;;;;;;3.90;1.52;;;8.30;99.90;;;;;;4908512;28;20043;-79
2021/04/08 10:51:15;;;;;;;3.00;1.42;;;8.40;99.90;;;;;;4990326;28;20037;-78
2021/04/08 10:53:47;;;;;;;4.05;1.67;;;8.30;99.90;;;;;;5004719;28;20026;-79
2021/04/08 10:56:12;;;;;;;4.63;2.00;;;8.30;99.90;;;;;;5004564;28;20041;-79
2021/04/08 10:58:41;;;;;;;4.05;2.58;;;8.50;99.90;;;;;;5023007;28;20030;-78
2021/04/08 11:01:07;;;;;;;4.07;2.15;;;8.20;99.90;;;;;;5021453;28;20761;-78
2021/04/08 11:03:33;;;;;;;5.13;3.17;;;8.40;99.90;;;;;;4989974;28;20482;-78
2021/04/08 11:06:05;;;;;;;3.35;1.98;;;8.10;99.90;;;;;;4988974;28;20049;-78
2021/04/08 11:08:31;;;;;;;5.20;2.53;;;8.50;99.90;;;;;;5000654;28;20077;-79
2021/04/08 11:10:57;;;;;;;6.25;3.00;;;8.40;99.50;;;;;;5023404;28;20037;-79
2021/04/08 11:13:33;;;;;;;6.25;2.17;;;7.80;98.90;;;;;;5006332;28;20026;-79
2021/04/08 11:15:59;;;;;;;6.45;2.83;;;8.20;99.70;;;;;;5022216;28;20040;-79
2021/04/08 11:18:25;;;;;;;6.47;2.28;;;8.20;99.90;;;;;;4983829;28;20041;-78
2021/04/08 11:20:52;;;;;;;2.95;1.60;;;7.90;99.90;;;;;;4967511;28;20033;-79
2021/04/08 11:23:20;;;;;;;3.67;2.40;;;8.10;99.90;;;;;;5002315;28;20022;-78
2021/04/08 11:26:00;;;;;;;4.65;2.42;;;7.70;98.40;;;;;;4995381;28;20025;-78
2021/04/08 11:28:26;;;;;;;4.68;1.88;;;7.80;99.50;;;;;;5019621;28;20124;-79
2021/04/08 11:30:52;;;;;;;3.35;1.65;;;8.30;99.90;;;;;;5003884;28;20084;-78
2021/04/08 11:33:23;;;;;;;5.35;1.58;;;8.50;99.90;;;;;;5021686;28;20042;-78
2021/04/08 11:35:49;;;;;;;5.55;2.33;;;8.50;99.90;;;;;;5006901;28;20054;-79
2021/04/08 11:38:21;;;;;;;4.15;2.00;;;8.40;99.90;;;;;;5023135;28;20089;-78
2021/04/08 11:40:49;;;;;;;3.47;1.83;;;8.40;99.90;;;;;;5020401;28;20044;-79
2021/04/08 11:43:24;;;;;;;5.78;2.58;;;8.10;99.90;;;;;;5023652;28;20072;-78
2021/04/08 11:45:55;;;;;;;4.78;2.15;;;8.00;99.60;;;;;;5023899;28;20076;-79
2021/04/08 11:48:22;;;;;;;3.85;2.20;;;8.10;99.90;;;;;;5023851;28;20029;-78
2021/04/08 11:50:50;;;;;;;4.60;2.25;;;8.40;99.90;;;;;;5024442;28;20093;-79
2021/04/08 11:53:31;;;;;;;4.07;1.85;;;8.10;99.90;;;;;;5023815;28;20504;-79
2021/04/08 11:55:56;;;;;;;6.90;2.70;;;8.40;99.90;;;;;;5007434;28;20034;-78
2021/04/08 11:58:31;;;;;;;7.35;3.08;;;8.40;99.90;;;;;;5040364;28;20040;-78
2021/04/08 12:01:18;;;;;;;6.35;2.15;;;8.10;99.90;;;;;;5024857;28;20029;-78
2021/04/08 12:03:50;;;;;;;3.00;1.63;;;8.00;99.90;;;;;;5025054;28;20034;-79
2021/04/08 12:06:18;;;;;;;5.40;2.00;;;8.50;99.90;;;;;;5003748;28;20034;-79
2021/04/08 12:08:46;;;;;;;4.43;2.25;;;8.60;99.90;;;;;;5005276;28;20086;-78
2021/04/08 12:11:13;;;;;;;4.93;2.10;;;8.50;99.90;;;;;;4997156;28;20395;-78
2021/04/08 12:13:41;;;;;;;4.38;2.60;;;8.40;99.90;;;;;;5007232;28;20123;-79
2021/04/08 12:16:24;;;;;;;9.80;3.13;;;8.40;99.90;;;;;;5024713;28;20037;-79
2021/04/08 12:18:50;;;;;;;5.63;2.55;;;8.50;99.90;;;;;;5007176;28;20026;-78
2021/04/08 12:21:17;;;;;;;3.60;1.88;;;8.60;99.90;;;;;;5007077;28;20470;-78
2021/04/08 12:23:44;;;;;;;3.30;2.25;;;8.80;99.90;;;;;;5004012;28;20030;-79
2021/04/08 12:26:11;;;;;;;6.10;2.63;;;9.00;99.90;;;;;;5003745;28;20454;-78
2021/04/08 12:28:39;;;;;;;7.65;3.05;;;8.90;99.90;;;;;;4971489;28;20130;-79
2021/04/08 12:31:05;;;;;;;4.90;2.50;;;8.90;99.90;;;;;;4987347;28;20045;-79
2021/04/08 12:33:32;;;;;;;8.50;3.40;;;8.60;99.90;;;;;;4995766;28;20493;-79
2021/04/08 12:36:06;;;;;;;8.82;3.45;;;8.40;98.30;;;;;;5003423;28;20061;-79
2021/04/08 12:38:32;;;;;;;5.68;3.42;;;8.50;99.90;;;;;;4987582;28;20049;-79
2021/04/08 12:41:00;;;;;;;4.22;2.78;;;8.80;99.90;;;;;;5004953;28;20109;-79
2021/04/08 12:43:27;;;;;;;6.18;3.60;;;9.00;99.90;;;;;;5008792;28;20041;-79
2021/04/08 12:45:53;;;;;;;4.63;2.90;;;8.40;99.90;;;;;;4991024;28;20313;-78
2021/04/08 12:48:19;;;;;;;4.80;2.35;;;8.60;99.90;;;;;;5008861;28;20270;-79
2021/04/08 12:50:46;;;;;;;6.53;2.78;;;8.70;99.90;;;;;;4974724;28;20133;-78
2021/04/08 12:53:12;;;;;;;3.33;2.42;;;8.70;99.90;;;;;;5007308;28;20517;-79
2021/04/08 12:55:38;;;;;;;5.05;2.75;;;8.70;99.90;;;;;;4990892;28;20053;-79
2021/04/08 12:58:05;;;;;;;5.32;3.80;;;8.60;99.90;;;;;;4991044;28;20061;-78
2021/04/08 13:00:31;;;;;;;5.68;3.22;;;8.40;99.90;;;;;;4991049;28;20031;-78
2021/04/08 13:02:57;;;;;;;5.63;2.80;;;8.40;99.90;;;;;;5004007;28;20058;-78
2021/04/08 13:05:23;;;;;;;7.72;3.22;;;8.50;99.90;;;;;;5026407;28;20040;-78
2021/04/08 13:07:50;;;;;;;6.85;3.83;;;8.60;99.70;;;;;;5021564;28;20060;-78
2021/04/08 13:10:16;;;;;;;5.85;2.42;;;8.70;99.90;;;;;;5029864;28;20383;-78
2021/04/08 13:12:43;;;;;;;6.20;4.10;;;8.80;99.90;;;;;;5029662;28;20044;-78
2021/04/08 13:15:10;;;;;;;6.20;4.15;;;8.40;98.90;;;;;;5029744;28;20036;-79
2021/04/08 13:17:35;;;;;;;7.30;4.68;;;8.50;99.90;;;;;;5029879;28;20034;-78